Drake — WDF2215 — position and weather

sailwx.info

Track history (hours):
 
Tides and Currents Weather Stations Pressure Air Temp Water Temp Dewpoint Dewpoint Depression Visibility Wind Speed Wind Dir Waves Ship Positions

Drake

Owner: San Francisco Bar Pilots, Seattle, WA. More information available from US FCC via Universal Licensing System and Coast Guard Vessel Documentation Center.

Last reported at 2018-May-24 22:36 UTC. Time now 2018-May-24 23:31 UTC.
Position N 37°46' W 122°40'.

Length 32 m; draft 3 m.

Type: Pilot. MMSI: 367426120.

Date/timePositionNaut miles runAvg speedWind from/ knotsBaromVisibWave heightAir tempDewpointWater temp
2018-May-24 22:36N 37°46' W 122°40'0 0.4
2018-May-24 21:35N 37°46' W 122°40'0 0.3
2018-May-24 20:01N 37°46' W 122°40'2 1.1
2018-May-24 18:34N 37°45' W 122°39'0 1.9
2018-May-24 18:29N 37°45' W 122°39'0 0.1
2018-May-24 16:54N 37°45' W 122°39'2 1.0
2018-May-24 14:24N 37°47' W 122°41'1 0.2
2018-May-24 08:45N 37°46' W 122°40'1 1.5
2018-May-24 08:23N 37°47' W 122°40'1 2.0
2018-May-24 07:53N 37°46' W 122°39'1 0.3
2018-May-24 05:41N 37°46' W 122°40'0 0.3
2018-May-24 04:17N 37°46' W 122°40'0 0.3
2018-May-24 03:08N 37°46' W 122°40'1 3.1
2018-May-24 02:40N 37°45' W 122°40'2 1.6
2018-May-24 01:35N 37°46' W 122°40'0 4.7
2018-May-24 01:29N 37°47' W 122°40'0 0.3
2018-May-24 00:08N 37°46' W 122°40'0 2.3
2018-May-24 00:00N 37°46' W 122°40'1 1.1
2018-May-23 23:24N 37°47' W 122°40'1 0.6
2018-May-23 22:20N 37°46' W 122°40'1 2.3
2018-May-23 21:51N 37°45' W 122°40'0 0.1
2018-May-23 19:30N 37°45' W 122°39'1 0.3
2018-May-23 17:30N 37°46' W 122°40'0 0.0
2018-May-23 15:26N 37°46' W 122°40'1 1.3
2018-May-23 14:53N 37°46' W 122°40'0 0.4
2018-May-23 14:22N 37°46' W 122°40'0 0.8
2018-May-23 14:00N 37°46' W 122°40'1 2.3
2018-May-23 13:28N 37°46' W 122°38'1 1.7
2018-May-23 12:45N 37°45' W 122°40'1 0.5
2018-May-23 10:19N 37°44' W 122°40'2 3.6
2018-May-23 09:52N 37°46' W 122°40'0 0.0
2018-May-23 06:27N 37°46' W 122°40'0 0.2
2018-May-23 04:42N 37°46' W 122°40'0 2.1
2018-May-23 04:30N 37°46' W 122°40'1 0.5
2018-May-23 03:21N 37°46' W 122°40'1 0.3
2018-May-23 01:13N 37°45' W 122°41'1 5.0
2018-May-23 01:00N 37°46' W 122°40'0 0.5
2018-May-23 00:03N 37°46' W 122°40'0 2.1
2018-May-22 23:54N 37°46' W 122°39'1 0.3
2018-May-22 22:22N 37°45' W 122°40'410.7
2018-May-22 21:59N 37°47' W 122°35'4 0.4
2018-May-22 12:11N 37°46' W 122°40'0 0.2
2018-May-22 10:38N 37°46' W 122°40'2 5.3
2018-May-22 10:19N 37°46' W 122°38'310.4
2018-May-22 10:00N 37°47' W 122°34'510.0
2018-May-22 09:30N 37°49' W 122°28'4 7.3
2018-May-22 09:00N 37°48' W 122°24'0 0.0
2018-May-22 08:30N 37°48' W 122°24'0 0.0
2018-May-22 08:00N 37°48' W 122°24'0 0.0
2018-May-22 07:30N 37°48' W 122°24'0 0.0
2018-May-22 07:00N 37°48' W 122°24'2 3.1
2018-May-22 06:31N 37°49' W 122°25'611.2
2018-May-22 06:00N 37°48' W 122°32'6 1.9
2018-May-22 02:36N 37°46' W 122°40'0 2.6
2018-May-22 02:27N 37°46' W 122°40'1 1.1
2018-May-22 01:53N 37°46' W 122°40'0 0.2
2018-May-22 00:17N 37°46' W 122°40'0 0.2
2018-May-21 22:16N 37°46' W 122°40'5 2.4
2018-May-21 20:20N 37°47' W 122°35'3 9.7
2018-May-21 20:01N 37°48' W 122°31'7 1.0
2018-May-21 12:44N 37°46' W 122°40'0 0.0
2018-May-21 03:25N 37°46' W 122°40'1 1.5
2018-May-21 02:56N 37°45' W 122°40'1 0.1
2018-May-20 21:46N 37°45' W 122°39'5 4.6
2018-May-20 20:46N 37°47' W 122°34'2 9.4
2018-May-20 20:30N 37°48' W 122°31'5 9.5
2018-May-20 20:00N 37°49' W 122°25'1 2.9
2018-May-20 19:30N 37°48' W 122°24'0 0.0
2018-May-20 19:00N 37°48' W 122°24'0 0.0
2018-May-20 18:30N 37°48' W 122°24'0 0.0
2018-May-20 18:00N 37°48' W 122°24'0 0.0
2018-May-20 17:30N 37°48' W 122°24'0 0.0
2018-May-20 17:00N 37°48' W 122°24'0 0.0
2018-May-20 16:30N 37°48' W 122°24'0 0.0
2018-May-20 16:00N 37°48' W 122°24'0 0.0
2018-May-20 15:30N 37°48' W 122°24'0 0.0
2018-May-20 15:01N 37°48' W 122°24'0 0.0
2018-May-20 14:30N 37°48' W 122°24'0 0.0
2018-May-20 14:00N 37°48' W 122°24'0 0.0
2018-May-20 13:30N 37°48' W 122°24'0 0.0
2018-May-20 12:57N 37°48' W 122°24'0 0.0
2018-May-20 12:30N 37°48' W 122°24'0 0.0
2018-May-20 12:00N 37°48' W 122°24'0 0.0
2018-May-20 11:29N 37°48' W 122°24'0 0.0
2018-May-20 11:00N 37°48' W 122°24'0 0.0
2018-May-20 10:30N 37°48' W 122°24'0 0.0
2018-May-20 10:00N 37°48' W 122°24'0 0.0
2018-May-20 09:30N 37°48' W 122°24'0 0.0
2018-May-20 09:00N 37°48' W 122°24'0 0.0
2018-May-20 08:30N 37°48' W 122°24'0 0.0
2018-May-20 08:00N 37°48' W 122°24'0 0.0
2018-May-20 07:30N 37°48' W 122°24'0 0.0
2018-May-20 07:00N 37°48' W 122°24'0 0.0
2018-May-20 06:30N 37°48' W 122°24'0 0.0
2018-May-20 06:00N 37°48' W 122°24'0 0.0
2018-May-20 05:30N 37°48' W 122°24'0 0.0
2018-May-20 05:00N 37°48' W 122°24'0 0.0
2018-May-20 04:30N 37°48' W 122°24'0 0.0
2018-May-20 04:00N 37°48' W 122°24'0 0.0
2018-May-20 03:30N 37°48' W 122°24'0 0.0
2018-May-20 02:56N 37°48' W 122°24'0 0.0
2018-May-20 02:29N 37°48' W 122°24'0 0.0
2018-May-20 02:00N 37°48' W 122°24'0 0.0
2018-May-20 01:30N 37°48' W 122°24'0 0.0
2018-May-20 01:00N 37°48' W 122°24'0 0.0
2018-May-20 00:29N 37°48' W 122°24'0 0.0
2018-May-20 00:00N 37°48' W 122°24'0 0.0
2018-May-19 23:30N 37°48' W 122°24'0 0.0
2018-May-19 23:00N 37°48' W 122°24'0 0.0
2018-May-19 22:30N 37°48' W 122°24'0 0.0
2018-May-19 21:59N 37°48' W 122°24'0 0.0
2018-May-19 21:30N 37°48' W 122°24'0 0.0
2018-May-19 20:58N 37°48' W 122°24'0 0.0
2018-May-19 20:30N 37°48' W 122°24'0 0.0
2018-May-19 20:00N 37°48' W 122°24'0 0.0
2018-May-19 19:29N 37°48' W 122°24'0 0.0
2018-May-19 19:00N 37°48' W 122°24'0 0.0
2018-May-19 18:30N 37°48' W 122°24'0 0.0
2018-May-19 18:00N 37°48' W 122°24'0 0.0
2018-May-19 17:30N 37°48' W 122°24'0 0.0
2018-May-19 17:00N 37°48' W 122°24'0 0.0
2018-May-19 16:30N 37°48' W 122°24'0 0.0
2018-May-19 16:00N 37°48' W 122°24'0 0.0
2018-May-19 15:30N 37°48' W 122°24'0 0.0
2018-May-19 15:00N 37°48' W 122°24'0 0.0
2018-May-19 14:30N 37°48' W 122°24'0 0.0
2018-May-19 14:00N 37°48' W 122°24'0 0.0
2018-May-19 13:27N 37°48' W 122°24'0 0.0
2018-May-19 12:59N 37°48' W 122°24'0 0.0
2018-May-19 12:30N 37°48' W 122°24'0 0.0
2018-May-19 12:00N 37°48' W 122°24'0 0.0
2018-May-19 11:30N 37°48' W 122°24'0 0.0
2018-May-19 11:00N 37°48' W 122°24'0 0.0
2018-May-19 10:30N 37°48' W 122°24'0 0.0
2018-May-19 10:00N 37°48' W 122°24'0 0.0
2018-May-19 09:30N 37°48' W 122°24'0 0.0
2018-May-19 09:00N 37°48' W 122°24'0 0.0
2018-May-19 08:30N 37°48' W 122°24'0 0.0
2018-May-19 08:00N 37°48' W 122°24'0 0.0
2018-May-19 07:30N 37°48' W 122°24'0 0.0
2018-May-19 07:00N 37°48' W 122°24'0 0.0
2018-May-19 06:30N 37°48' W 122°24'0 0.0
2018-May-19 06:00N 37°48' W 122°24'0 0.0
2018-May-19 05:30N 37°48' W 122°24'0 0.0
2018-May-19 05:00N 37°48' W 122°24'0 0.0
2018-May-19 04:30N 37°48' W 122°24'0 0.0
2018-May-19 04:00N 37°48' W 122°24'0 0.0
2018-May-19 03:30N 37°48' W 122°24'0 0.0
2018-May-19 03:00N 37°48' W 122°24'0 0.0
2018-May-19 02:29N 37°48' W 122°24'0 0.0
2018-May-19 02:00N 37°48' W 122°24'0 0.0
2018-May-19 01:29N 37°48' W 122°24'0 0.0
2018-May-19 01:00N 37°48' W 122°24'0 0.0
2018-May-19 00:30N 37°48' W 122°24'0 0.0
2018-May-19 00:00N 37°48' W 122°24'0 0.0
2018-May-18 23:30N 37°48' W 122°24'0 0.0
2018-May-18 23:00N 37°48' W 122°24'0 0.0
2018-May-18 22:30N 37°48' W 122°24'0 0.0
2018-May-18 21:59N 37°48' W 122°24'0 0.0
2018-May-18 21:30N 37°48' W 122°24'0 0.0
2018-May-18 21:00N 37°48' W 122°24'0 0.2
2018-May-18 20:30N 37°48' W 122°24'0 0.2
2018-May-18 20:00N 37°48' W 122°24'0 0.0
2018-May-18 19:29N 37°48' W 122°24'0 0.0
2018-May-18 18:59N 37°48' W 122°24'0 0.0
2018-May-18 18:30N 37°48' W 122°24'0 0.0
2018-May-18 18:00N 37°48' W 122°24'0 0.0
2018-May-18 17:30N 37°48' W 122°24'0 0.0
2018-May-18 17:00N 37°48' W 122°24'0 0.0
2018-May-18 16:30N 37°48' W 122°24'0 0.0
2018-May-18 15:59N 37°48' W 122°24'0 0.0
2018-May-18 15:30N 37°48' W 122°24'0 0.0
2018-May-18 15:00N 37°48' W 122°24'0 0.0
2018-May-18 14:30N 37°48' W 122°24'0 0.0
2018-May-18 14:00N 37°48' W 122°24'0 0.0
2018-May-18 13:29N 37°48' W 122°24'0 0.0
2018-May-18 12:58N 37°48' W 122°24'0 0.0
2018-May-18 12:30N 37°48' W 122°24'0 0.0
2018-May-18 11:58N 37°48' W 122°24'0 0.0
2018-May-18 11:29N 37°48' W 122°24'0 0.0
2018-May-18 11:00N 37°48' W 122°24'0 0.0
2018-May-18 10:30N 37°48' W 122°24'0 0.0
2018-May-18 10:00N 37°48' W 122°24'0 0.0
2018-May-18 09:30N 37°48' W 122°24'0 0.0
2018-May-18 09:00N 37°48' W 122°24'0 0.0
2018-May-18 08:30N 37°48' W 122°24'0 0.0
2018-May-18 08:00N 37°48' W 122°24'0 0.0
2018-May-18 07:30N 37°48' W 122°24'0 0.0
2018-May-18 07:00N 37°48' W 122°24'0 0.0
2018-May-18 06:30N 37°48' W 122°24'0 0.0
2018-May-18 06:00N 37°48' W 122°24'0 0.0
2018-May-18 05:30N 37°48' W 122°24'0 0.0
2018-May-18 05:00N 37°48' W 122°24'0 0.0
2018-May-18 04:30N 37°48' W 122°24'0 0.0
2018-May-18 04:00N 37°48' W 122°24'0 0.0
2018-May-18 03:30N 37°48' W 122°24'0 0.0
2018-May-18 03:00N 37°48' W 122°24'0 0.0
2018-May-18 02:27N 37°48' W 122°24'0 0.0
2018-May-18 02:00N 37°48' W 122°24'0 0.0
2018-May-18 01:30N 37°48' W 122°24'0 0.0
2018-May-18 01:00N 37°48' W 122°24'0 0.0
2018-May-18 00:30N 37°48' W 122°24'0 0.0
2018-May-18 00:00N 37°48' W 122°24'0 0.0
2018-May-17 23:30N 37°48' W 122°24'0 0.0
2018-May-17 23:00N 37°48' W 122°24'0 0.0
2018-May-17 22:30N 37°48' W 122°24'0 0.0
2018-May-17 22:00N 37°48' W 122°24'0 0.0
2018-May-17 21:30N 37°48' W 122°24'0 0.0
2018-May-17 21:00N 37°48' W 122°24'0 0.0
2018-May-17 20:30N 37°48' W 122°24'0 0.0
2018-May-17 20:00N 37°48' W 122°24'0 0.0
2018-May-17 19:30N 37°48' W 122°24'0 0.0
2018-May-17 19:00N 37°48' W 122°24'0 0.0
2018-May-17 18:30N 37°48' W 122°24'0 0.0
2018-May-17 18:00N 37°48' W 122°24'0 0.0
2018-May-17 17:28N 37°48' W 122°24'0 0.0
2018-May-17 17:00N 37°48' W 122°24'0 0.0
2018-May-17 16:30N 37°48' W 122°24'0 0.0
2018-May-17 15:59N 37°48' W 122°24'0 0.0
2018-May-17 15:30N 37°48' W 122°24'0 0.0
2018-May-17 15:00N 37°48' W 122°24'0 0.0
2018-May-17 14:30N 37°48' W 122°24'0 0.0
2018-May-17 14:00N 37°48' W 122°24'0 0.0
2018-May-17 13:29N 37°48' W 122°24'0 0.0
2018-May-17 13:00N 37°48' W 122°24'0 0.0
2018-May-17 12:30N 37°48' W 122°24'0 0.0
2018-May-17 11:59N 37°48' W 122°24'0 0.0
2018-May-17 11:30N 37°48' W 122°24'0 0.0
2018-May-17 11:00N 37°48' W 122°24'0 0.0
2018-May-17 10:30N 37°48' W 122°24'0 0.0
2018-May-17 10:00N 37°48' W 122°24'0 0.0
2018-May-17 09:30N 37°48' W 122°24'0 0.0
2018-May-17 09:00N 37°48' W 122°24'0 0.0
2018-May-17 08:30N 37°48' W 122°24'0 0.0
2018-May-17 08:00N 37°48' W 122°24'0 0.0
2018-May-17 07:30N 37°48' W 122°24'0 0.0
2018-May-17 07:00N 37°48' W 122°24'0 0.0
2018-May-17 06:30N 37°48' W 122°24'0 0.0
2018-May-17 06:00N 37°48' W 122°24'0 0.0
2018-May-17 05:30N 37°48' W 122°24'0 0.0
2018-May-17 05:00N 37°48' W 122°24'0 0.0
2018-May-17 04:30N 37°48' W 122°24'0 0.0
2018-May-17 03:59N 37°48' W 122°24'0 0.0
2018-May-17 03:30N 37°48' W 122°24'0 0.0
2018-May-17 03:00N 37°48' W 122°24'0 0.0
2018-May-17 02:30N 37°48' W 122°24'0 0.0
2018-May-17 02:00N 37°48' W 122°24'0 0.0
2018-May-17 01:30N 37°48' W 122°24'0 0.0
2018-May-17 01:00N 37°48' W 122°24'0 0.0
2018-May-17 00:30N 37°48' W 122°24'0 0.0
2018-May-17 00:00N 37°48' W 122°24'0 0.0
2018-May-16 23:29N 37°48' W 122°24'0 0.0
2018-May-16 23:00N 37°48' W 122°24'0 0.0
2018-May-16 22:30N 37°48' W 122°24'0 0.0
2018-May-16 22:00N 37°48' W 122°24'0 0.0
2018-May-16 21:30N 37°48' W 122°24'0 0.0
2018-May-16 21:00N 37°48' W 122°24'0 0.0
2018-May-16 20:30N 37°48' W 122°24'0 0.0
2018-May-16 20:00N 37°48' W 122°24'0 0.0
2018-May-16 19:29N 37°48' W 122°24'0 0.0
2018-May-16 19:00N 37°48' W 122°24'0 0.0
2018-May-16 18:30N 37°48' W 122°24'0 0.0
2018-May-16 18:00N 37°48' W 122°24'0 0.0
2018-May-16 17:30N 37°48' W 122°24'0 0.0
2018-May-16 17:00N 37°48' W 122°24'0 0.0
2018-May-16 16:30N 37°48' W 122°24'0 0.0
2018-May-16 16:00N 37°48' W 122°24'0 0.0
2018-May-16 15:30N 37°48' W 122°24'0 0.0
2018-May-16 15:00N 37°48' W 122°24'0 0.0
2018-May-16 14:30N 37°48' W 122°24'0 0.0
2018-May-16 14:00N 37°48' W 122°24'0 0.0
2018-May-16 13:30N 37°48' W 122°24'0 0.0
2018-May-16 13:00N 37°48' W 122°24'0 0.0
2018-May-16 12:30N 37°48' W 122°24'0 0.0
2018-May-16 12:00N 37°48' W 122°24'0 0.0
2018-May-16 11:30N 37°48' W 122°24'0 0.0
2018-May-16 11:00N 37°48' W 122°24'0 0.0
2018-May-16 10:28N 37°48' W 122°24'0 0.0
2018-May-16 09:59N 37°48' W 122°24'0 0.0
2018-May-16 09:29N 37°48' W 122°24'0 0.0
2018-May-16 09:00N 37°48' W 122°24'0 0.0
2018-May-16 08:30N 37°48' W 122°24'0 0.0
2018-May-16 07:58N 37°48' W 122°24'0 0.0
2018-May-16 07:30N 37°48' W 122°24'0 0.0
2018-May-16 07:00N 37°48' W 122°24'0 0.0
2018-May-16 06:30N 37°48' W 122°24'0 0.0
2018-May-16 06:00N 37°48' W 122°24'0 0.0
2018-May-16 05:30N 37°48' W 122°24'0 0.0
2018-May-16 05:00N 37°48' W 122°24'0 0.0
2018-May-16 04:30N 37°48' W 122°24'0 0.0
2018-May-16 04:00N 37°48' W 122°24'0 0.0
2018-May-16 03:30N 37°48' W 122°24'0 0.0
2018-May-16 03:00N 37°48' W 122°24'0 0.0
2018-May-16 02:30N 37°48' W 122°24'0 0.0
2018-May-16 02:00N 37°48' W 122°24'0 0.0
2018-May-16 01:30N 37°48' W 122°24'0 0.0
2018-May-16 00:58N 37°48' W 122°24'0 0.0
2018-May-16 00:30N 37°48' W 122°24'0 0.0
2018-May-16 00:00N 37°48' W 122°24'0 0.0
2018-May-15 23:30N 37°48' W 122°24'0 0.0
2018-May-15 23:00N 37°48' W 122°24'0 0.0
2018-May-15 22:29N 37°48' W 122°24'0 0.0
2018-May-15 21:58N 37°48' W 122°24'0 0.0
2018-May-15 21:30N 37°48' W 122°24'0 0.0
2018-May-15 21:00N 37°48' W 122°24'0 0.0
2018-May-15 20:30N 37°48' W 122°24'0 0.0
2018-May-15 20:00N 37°48' W 122°24'0 0.0
2018-May-15 19:30N 37°48' W 122°24'0 0.0
2018-May-15 19:00N 37°48' W 122°24'0 0.0
2018-May-15 18:30N 37°48' W 122°24'0 0.0
2018-May-15 18:00N 37°48' W 122°24'0 0.0
2018-May-15 17:30N 37°48' W 122°24'0 0.0
2018-May-15 17:00N 37°48' W 122°24'0 0.0
2018-May-15 16:30N 37°48' W 122°24'0 0.0
2018-May-15 15:59N 37°48' W 122°24'0 0.0
2018-May-15 15:30N 37°48' W 122°24'0 0.0
2018-May-15 15:00N 37°48' W 122°24'0 0.0
2018-May-15 14:30N 37°48' W 122°24'0 0.0
2018-May-15 14:00N 37°48' W 122°24'0 0.0
2018-May-15 13:27N 37°48' W 122°24'0 0.0
2018-May-15 12:59N 37°48' W 122°24'0 0.0
2018-May-15 12:30N 37°48' W 122°24'0 0.0
2018-May-15 12:00N 37°48' W 122°24'0 0.0
2018-May-15 11:30N 37°48' W 122°24'0 0.0
2018-May-15 11:00N 37°48' W 122°24'0 0.0
2018-May-15 10:30N 37°48' W 122°24'0 0.0
2018-May-15 10:00N 37°48' W 122°24'0 0.0
2018-May-15 09:30N 37°48' W 122°24'0 0.0
2018-May-15 09:00N 37°48' W 122°24'0 0.0
2018-May-15 08:30N 37°48' W 122°24'0 0.0
2018-May-15 07:58N 37°48' W 122°24'0 0.0
2018-May-15 07:30N 37°48' W 122°24'0 0.0
2018-May-15 07:00N 37°48' W 122°24'0 0.0
2018-May-15 06:30N 37°48' W 122°24'0 0.0
2018-May-15 06:00N 37°48' W 122°24'0 0.0
2018-May-15 05:30N 37°48' W 122°24'0 0.0
2018-May-15 05:00N 37°48' W 122°24'0 0.0
2018-May-15 04:30N 37°48' W 122°24'0 0.0
2018-May-15 04:00N 37°48' W 122°24'0 0.0
2018-May-15 03:30N 37°48' W 122°24'0 0.0
2018-May-15 03:00N 37°48' W 122°24'0 0.0
2018-May-15 02:30N 37°48' W 122°24'0 0.0
2018-May-15 01:58N 37°48' W 122°24'0 0.0
2018-May-15 01:30N 37°48' W 122°24'0 0.0
2018-May-15 01:00N 37°48' W 122°24'0 0.0
2018-May-15 00:30N 37°48' W 122°24'0 0.0
2018-May-15 00:00N 37°48' W 122°24'0 0.0
2018-May-14 23:30N 37°48' W 122°24'0 0.0
2018-May-14 23:00N 37°48' W 122°24'  
Track history (hours):
 
Tides and Currents Weather Stations Pressure Air Temp Water Temp Dewpoint Dewpoint Depression Visibility Wind Speed Wind Dir Waves Ship Positions

Drake

Owner: San Francisco Bar Pilots, Seattle, WA. More information available from US FCC via Universal Licensing System and Coast Guard Vessel Documentation Center.

Last reported at 2018-May-24 22:36 UTC. Time now 2018-May-24 23:31 UTC.
Position N 37°46' W 122°40'.

Length 32 m; draft 3 m.

Type: Pilot. MMSI: 367426120.

Date/timePositionNaut miles runAvg speedWind from/ knotsBaromVisibWave heightAir tempDewpointWater temp
2018-May-24 22:36N 37°46' W 122°40'0 0.4
2018-May-24 21:35N 37°46' W 122°40'0 0.3
2018-May-24 20:01N 37°46' W 122°40'2 1.1
2018-May-24 18:34N 37°45' W 122°39'0 1.9
2018-May-24 18:29N 37°45' W 122°39'0 0.1
2018-May-24 16:54N 37°45' W 122°39'2 1.0
2018-May-24 14:24N 37°47' W 122°41'1 0.2
2018-May-24 08:45N 37°46' W 122°40'1 1.5
2018-May-24 08:23N 37°47' W 122°40'1 2.0
2018-May-24 07:53N 37°46' W 122°39'1 0.3
2018-May-24 05:41N 37°46' W 122°40'0 0.3
2018-May-24 04:17N 37°46' W 122°40'0 0.3
2018-May-24 03:08N 37°46' W 122°40'1 3.1
2018-May-24 02:40N 37°45' W 122°40'2 1.6
2018-May-24 01:35N 37°46' W 122°40'0 4.7
2018-May-24 01:29N 37°47' W 122°40'0 0.3
2018-May-24 00:08N 37°46' W 122°40'0 2.3
2018-May-24 00:00N 37°46' W 122°40'1 1.1
2018-May-23 23:24N 37°47' W 122°40'1 0.6
2018-May-23 22:20N 37°46' W 122°40'1 2.3
2018-May-23 21:51N 37°45' W 122°40'0 0.1
2018-May-23 19:30N 37°45' W 122°39'1 0.3
2018-May-23 17:30N 37°46' W 122°40'0 0.0
2018-May-23 15:26N 37°46' W 122°40'1 1.3
2018-May-23 14:53N 37°46' W 122°40'0 0.4
2018-May-23 14:22N 37°46' W 122°40'0 0.8
2018-May-23 14:00N 37°46' W 122°40'1 2.3
2018-May-23 13:28N 37°46' W 122°38'1 1.7
2018-May-23 12:45N 37°45' W 122°40'1 0.5
2018-May-23 10:19N 37°44' W 122°40'2 3.6
2018-May-23 09:52N 37°46' W 122°40'0 0.0
2018-May-23 06:27N 37°46' W 122°40'0 0.2
2018-May-23 04:42N 37°46' W 122°40'0 2.1
2018-May-23 04:30N 37°46' W 122°40'1 0.5
2018-May-23 03:21N 37°46' W 122°40'1 0.3
2018-May-23 01:13N 37°45' W 122°41'1 5.0
2018-May-23 01:00N 37°46' W 122°40'0 0.5
2018-May-23 00:03N 37°46' W 122°40'0 2.1
2018-May-22 23:54N 37°46' W 122°39'1 0.3
2018-May-22 22:22N 37°45' W 122°40'410.7
2018-May-22 21:59N 37°47' W 122°35'4 0.4
2018-May-22 12:11N 37°46' W 122°40'0 0.2
2018-May-22 10:38N 37°46' W 122°40'2 5.3
2018-May-22 10:19N 37°46' W 122°38'310.4
2018-May-22 10:00N 37°47' W 122°34'510.0
2018-May-22 09:30N 37°49' W 122°28'4 7.3
2018-May-22 09:00N 37°48' W 122°24'0 0.0
2018-May-22 08:30N 37°48' W 122°24'0 0.0
2018-May-22 08:00N 37°48' W 122°24'0 0.0
2018-May-22 07:30N 37°48' W 122°24'0 0.0
2018-May-22 07:00N 37°48' W 122°24'2 3.1
2018-May-22 06:31N 37°49' W 122°25'611.2
2018-May-22 06:00N 37°48' W 122°32'6 1.9
2018-May-22 02:36N 37°46' W 122°40'0 2.6
2018-May-22 02:27N 37°46' W 122°40'1 1.1
2018-May-22 01:53N 37°46' W 122°40'0 0.2
2018-May-22 00:17N 37°46' W 122°40'0 0.2
2018-May-21 22:16N 37°46' W 122°40'5 2.4
2018-May-21 20:20N 37°47' W 122°35'3 9.7
2018-May-21 20:01N 37°48' W 122°31'7 1.0
2018-May-21 12:44N 37°46' W 122°40'0 0.0
2018-May-21 03:25N 37°46' W 122°40'1 1.5
2018-May-21 02:56N 37°45' W 122°40'1 0.1
2018-May-20 21:46N 37°45' W 122°39'5 4.6
2018-May-20 20:46N 37°47' W 122°34'2 9.4
2018-May-20 20:30N 37°48' W 122°31'5 9.5
2018-May-20 20:00N 37°49' W 122°25'1 2.9
2018-May-20 19:30N 37°48' W 122°24'0 0.0
2018-May-20 19:00N 37°48' W 122°24'0 0.0
2018-May-20 18:30N 37°48' W 122°24'0 0.0
2018-May-20 18:00N 37°48' W 122°24'0 0.0
2018-May-20 17:30N 37°48' W 122°24'0 0.0
2018-May-20 17:00N 37°48' W 122°24'0 0.0
2018-May-20 16:30N 37°48' W 122°24'0 0.0
2018-May-20 16:00N 37°48' W 122°24'0 0.0
2018-May-20 15:30N 37°48' W 122°24'0 0.0
2018-May-20 15:01N 37°48' W 122°24'0 0.0
2018-May-20 14:30N 37°48' W 122°24'0 0.0
2018-May-20 14:00N 37°48' W 122°24'0 0.0
2018-May-20 13:30N 37°48' W 122°24'0 0.0
2018-May-20 12:57N 37°48' W 122°24'0 0.0
2018-May-20 12:30N 37°48' W 122°24'0 0.0
2018-May-20 12:00N 37°48' W 122°24'0 0.0
2018-May-20 11:29N 37°48' W 122°24'0 0.0
2018-May-20 11:00N 37°48' W 122°24'0 0.0
2018-May-20 10:30N 37°48' W 122°24'0 0.0
2018-May-20 10:00N 37°48' W 122°24'0 0.0
2018-May-20 09:30N 37°48' W 122°24'0 0.0
2018-May-20 09:00N 37°48' W 122°24'0 0.0
2018-May-20 08:30N 37°48' W 122°24'0 0.0
2018-May-20 08:00N 37°48' W 122°24'0 0.0
2018-May-20 07:30N 37°48' W 122°24'0 0.0
2018-May-20 07:00N 37°48' W 122°24'0 0.0
2018-May-20 06:30N 37°48' W 122°24'0 0.0
2018-May-20 06:00N 37°48' W 122°24'0 0.0
2018-May-20 05:30N 37°48' W 122°24'0 0.0
2018-May-20 05:00N 37°48' W 122°24'0 0.0
2018-May-20 04:30N 37°48' W 122°24'0 0.0
2018-May-20 04:00N 37°48' W 122°24'0 0.0
2018-May-20 03:30N 37°48' W 122°24'0 0.0
2018-May-20 02:56N 37°48' W 122°24'0 0.0
2018-May-20 02:29N 37°48' W 122°24'0 0.0
2018-May-20 02:00N 37°48' W 122°24'0 0.0
2018-May-20 01:30N 37°48' W 122°24'0 0.0
2018-May-20 01:00N 37°48' W 122°24'0 0.0
2018-May-20 00:29N 37°48' W 122°24'0 0.0
2018-May-20 00:00N 37°48' W 122°24'0 0.0
2018-May-19 23:30N 37°48' W 122°24'0 0.0
2018-May-19 23:00N 37°48' W 122°24'0 0.0
2018-May-19 22:30N 37°48' W 122°24'0 0.0
2018-May-19 21:59N 37°48' W 122°24'0 0.0
2018-May-19 21:30N 37°48' W 122°24'0 0.0
2018-May-19 20:58N 37°48' W 122°24'0 0.0
2018-May-19 20:30N 37°48' W 122°24'0 0.0
2018-May-19 20:00N 37°48' W 122°24'0 0.0
2018-May-19 19:29N 37°48' W 122°24'0 0.0
2018-May-19 19:00N 37°48' W 122°24'0 0.0
2018-May-19 18:30N 37°48' W 122°24'0 0.0
2018-May-19 18:00N 37°48' W 122°24'0 0.0
2018-May-19 17:30N 37°48' W 122°24'0 0.0
2018-May-19 17:00N 37°48' W 122°24'0 0.0
2018-May-19 16:30N 37°48' W 122°24'0 0.0
2018-May-19 16:00N 37°48' W 122°24'0 0.0
2018-May-19 15:30N 37°48' W 122°24'0 0.0
2018-May-19 15:00N 37°48' W 122°24'0 0.0
2018-May-19 14:30N 37°48' W 122°24'0 0.0
2018-May-19 14:00N 37°48' W 122°24'0 0.0
2018-May-19 13:27N 37°48' W 122°24'0 0.0
2018-May-19 12:59N 37°48' W 122°24'0 0.0
2018-May-19 12:30N 37°48' W 122°24'0 0.0
2018-May-19 12:00N 37°48' W 122°24'0 0.0
2018-May-19 11:30N 37°48' W 122°24'0 0.0
2018-May-19 11:00N 37°48' W 122°24'0 0.0
2018-May-19 10:30N 37°48' W 122°24'0 0.0
2018-May-19 10:00N 37°48' W 122°24'0 0.0
2018-May-19 09:30N 37°48' W 122°24'0 0.0
2018-May-19 09:00N 37°48' W 122°24'0 0.0
2018-May-19 08:30N 37°48' W 122°24'0 0.0
2018-May-19 08:00N 37°48' W 122°24'0 0.0
2018-May-19 07:30N 37°48' W 122°24'0 0.0
2018-May-19 07:00N 37°48' W 122°24'0 0.0
2018-May-19 06:30N 37°48' W 122°24'0 0.0
2018-May-19 06:00N 37°48' W 122°24'0 0.0
2018-May-19 05:30N 37°48' W 122°24'0 0.0
2018-May-19 05:00N 37°48' W 122°24'0 0.0
2018-May-19 04:30N 37°48' W 122°24'0 0.0
2018-May-19 04:00N 37°48' W 122°24'0 0.0
2018-May-19 03:30N 37°48' W 122°24'0 0.0
2018-May-19 03:00N 37°48' W 122°24'0 0.0
2018-May-19 02:29N 37°48' W 122°24'0 0.0
2018-May-19 02:00N 37°48' W 122°24'0 0.0
2018-May-19 01:29N 37°48' W 122°24'0 0.0
2018-May-19 01:00N 37°48' W 122°24'0 0.0
2018-May-19 00:30N 37°48' W 122°24'0 0.0
2018-May-19 00:00N 37°48' W 122°24'0 0.0
2018-May-18 23:30N 37°48' W 122°24'0 0.0
2018-May-18 23:00N 37°48' W 122°24'0 0.0
2018-May-18 22:30N 37°48' W 122°24'0 0.0
2018-May-18 21:59N 37°48' W 122°24'0 0.0
2018-May-18 21:30N 37°48' W 122°24'0 0.0
2018-May-18 21:00N 37°48' W 122°24'0 0.2
2018-May-18 20:30N 37°48' W 122°24'0 0.2
2018-May-18 20:00N 37°48' W 122°24'0 0.0
2018-May-18 19:29N 37°48' W 122°24'0 0.0
2018-May-18 18:59N 37°48' W 122°24'0 0.0
2018-May-18 18:30N 37°48' W 122°24'0 0.0
2018-May-18 18:00N 37°48' W 122°24'0 0.0
2018-May-18 17:30N 37°48' W 122°24'0 0.0
2018-May-18 17:00N 37°48' W 122°24'0 0.0
2018-May-18 16:30N 37°48' W 122°24'0 0.0
2018-May-18 15:59N 37°48' W 122°24'0 0.0
2018-May-18 15:30N 37°48' W 122°24'0 0.0
2018-May-18 15:00N 37°48' W 122°24'0 0.0
2018-May-18 14:30N 37°48' W 122°24'0 0.0
2018-May-18 14:00N 37°48' W 122°24'0 0.0
2018-May-18 13:29N 37°48' W 122°24'0 0.0
2018-May-18 12:58N 37°48' W 122°24'0 0.0
2018-May-18 12:30N 37°48' W 122°24'0 0.0
2018-May-18 11:58N 37°48' W 122°24'0 0.0
2018-May-18 11:29N 37°48' W 122°24'0 0.0
2018-May-18 11:00N 37°48' W 122°24'0 0.0
2018-May-18 10:30N 37°48' W 122°24'0 0.0
2018-May-18 10:00N 37°48' W 122°24'0 0.0
2018-May-18 09:30N 37°48' W 122°24'0 0.0
2018-May-18 09:00N 37°48' W 122°24'0 0.0
2018-May-18 08:30N 37°48' W 122°24'0 0.0
2018-May-18 08:00N 37°48' W 122°24'0 0.0
2018-May-18 07:30N 37°48' W 122°24'0 0.0
2018-May-18 07:00N 37°48' W 122°24'0 0.0
2018-May-18 06:30N 37°48' W 122°24'0 0.0
2018-May-18 06:00N 37°48' W 122°24'0 0.0
2018-May-18 05:30N 37°48' W 122°24'0 0.0
2018-May-18 05:00N 37°48' W 122°24'0 0.0
2018-May-18 04:30N 37°48' W 122°24'0 0.0
2018-May-18 04:00N 37°48' W 122°24'0 0.0
2018-May-18 03:30N 37°48' W 122°24'0 0.0
2018-May-18 03:00N 37°48' W 122°24'0 0.0
2018-May-18 02:27N 37°48' W 122°24'0 0.0
2018-May-18 02:00N 37°48' W 122°24'0 0.0
2018-May-18 01:30N 37°48' W 122°24'0 0.0
2018-May-18 01:00N 37°48' W 122°24'0 0.0
2018-May-18 00:30N 37°48' W 122°24'0 0.0
2018-May-18 00:00N 37°48' W 122°24'0 0.0
2018-May-17 23:30N 37°48' W 122°24'0 0.0
2018-May-17 23:00N 37°48' W 122°24'0 0.0
2018-May-17 22:30N 37°48' W 122°24'0 0.0
2018-May-17 22:00N 37°48' W 122°24'0 0.0
2018-May-17 21:30N 37°48' W 122°24'0 0.0
2018-May-17 21:00N 37°48' W 122°24'0 0.0
2018-May-17 20:30N 37°48' W 122°24'0 0.0
2018-May-17 20:00N 37°48' W 122°24'0 0.0
2018-May-17 19:30N 37°48' W 122°24'0 0.0
2018-May-17 19:00N 37°48' W 122°24'0 0.0
2018-May-17 18:30N 37°48' W 122°24'0 0.0
2018-May-17 18:00N 37°48' W 122°24'0 0.0
2018-May-17 17:28N 37°48' W 122°24'0 0.0
2018-May-17 17:00N 37°48' W 122°24'0 0.0
2018-May-17 16:30N 37°48' W 122°24'0 0.0
2018-May-17 15:59N 37°48' W 122°24'0 0.0
2018-May-17 15:30N 37°48' W 122°24'0 0.0
2018-May-17 15:00N 37°48' W 122°24'0 0.0
2018-May-17 14:30N 37°48' W 122°24'0 0.0
2018-May-17 14:00N 37°48' W 122°24'0 0.0
2018-May-17 13:29N 37°48' W 122°24'0 0.0
2018-May-17 13:00N 37°48' W 122°24'0 0.0
2018-May-17 12:30N 37°48' W 122°24'0 0.0
2018-May-17 11:59N 37°48' W 122°24'0 0.0
2018-May-17 11:30N 37°48' W 122°24'0 0.0
2018-May-17 11:00N 37°48' W 122°24'0 0.0
2018-May-17 10:30N 37°48' W 122°24'0 0.0
2018-May-17 10:00N 37°48' W 122°24'0 0.0
2018-May-17 09:30N 37°48' W 122°24'0 0.0
2018-May-17 09:00N 37°48' W 122°24'0 0.0
2018-May-17 08:30N 37°48' W 122°24'0 0.0
2018-May-17 08:00N 37°48' W 122°24'0 0.0
2018-May-17 07:30N 37°48' W 122°24'0 0.0
2018-May-17 07:00N 37°48' W 122°24'0 0.0
2018-May-17 06:30N 37°48' W 122°24'0 0.0
2018-May-17 06:00N 37°48' W 122°24'0 0.0
2018-May-17 05:30N 37°48' W 122°24'0 0.0
2018-May-17 05:00N 37°48' W 122°24'0 0.0
2018-May-17 04:30N 37°48' W 122°24'0 0.0
2018-May-17 03:59N 37°48' W 122°24'0 0.0
2018-May-17 03:30N 37°48' W 122°24'0 0.0
2018-May-17 03:00N 37°48' W 122°24'0 0.0
2018-May-17 02:30N 37°48' W 122°24'0 0.0
2018-May-17 02:00N 37°48' W 122°24'0 0.0
2018-May-17 01:30N 37°48' W 122°24'0 0.0
2018-May-17 01:00N 37°48' W 122°24'0 0.0
2018-May-17 00:30N 37°48' W 122°24'0 0.0
2018-May-17 00:00N 37°48' W 122°24'0 0.0
2018-May-16 23:29N 37°48' W 122°24'0 0.0
2018-May-16 23:00N 37°48' W 122°24'0 0.0
2018-May-16 22:30N 37°48' W 122°24'0 0.0
2018-May-16 22:00N 37°48' W 122°24'0 0.0
2018-May-16 21:30N 37°48' W 122°24'0 0.0
2018-May-16 21:00N 37°48' W 122°24'0 0.0
2018-May-16 20:30N 37°48' W 122°24'0 0.0
2018-May-16 20:00N 37°48' W 122°24'0 0.0
2018-May-16 19:29N 37°48' W 122°24'0 0.0
2018-May-16 19:00N 37°48' W 122°24'0 0.0
2018-May-16 18:30N 37°48' W 122°24'0 0.0
2018-May-16 18:00N 37°48' W 122°24'0 0.0
2018-May-16 17:30N 37°48' W 122°24'0 0.0
2018-May-16 17:00N 37°48' W 122°24'0 0.0
2018-May-16 16:30N 37°48' W 122°24'0 0.0
2018-May-16 16:00N 37°48' W 122°24'0 0.0
2018-May-16 15:30N 37°48' W 122°24'0 0.0
2018-May-16 15:00N 37°48' W 122°24'0 0.0
2018-May-16 14:30N 37°48' W 122°24'0 0.0
2018-May-16 14:00N 37°48' W 122°24'0 0.0
2018-May-16 13:30N 37°48' W 122°24'0 0.0
2018-May-16 13:00N 37°48' W 122°24'0 0.0
2018-May-16 12:30N 37°48' W 122°24'0 0.0
2018-May-16 12:00N 37°48' W 122°24'0 0.0
2018-May-16 11:30N 37°48' W 122°24'0 0.0
2018-May-16 11:00N 37°48' W 122°24'0 0.0
2018-May-16 10:28N 37°48' W 122°24'0 0.0
2018-May-16 09:59N 37°48' W 122°24'0 0.0
2018-May-16 09:29N 37°48' W 122°24'0 0.0
2018-May-16 09:00N 37°48' W 122°24'0 0.0
2018-May-16 08:30N 37°48' W 122°24'0 0.0
2018-May-16 07:58N 37°48' W 122°24'0 0.0
2018-May-16 07:30N 37°48' W 122°24'0 0.0
2018-May-16 07:00N 37°48' W 122°24'0 0.0
2018-May-16 06:30N 37°48' W 122°24'0 0.0
2018-May-16 06:00N 37°48' W 122°24'0 0.0
2018-May-16 05:30N 37°48' W 122°24'0 0.0
2018-May-16 05:00N 37°48' W 122°24'0 0.0
2018-May-16 04:30N 37°48' W 122°24'0 0.0
2018-May-16 04:00N 37°48' W 122°24'0 0.0
2018-May-16 03:30N 37°48' W 122°24'0 0.0
2018-May-16 03:00N 37°48' W 122°24'0 0.0
2018-May-16 02:30N 37°48' W 122°24'0 0.0
2018-May-16 02:00N 37°48' W 122°24'0 0.0
2018-May-16 01:30N 37°48' W 122°24'0 0.0
2018-May-16 00:58N 37°48' W 122°24'0 0.0
2018-May-16 00:30N 37°48' W 122°24'0 0.0
2018-May-16 00:00N 37°48' W 122°24'0 0.0
2018-May-15 23:30N 37°48' W 122°24'0 0.0
2018-May-15 23:00N 37°48' W 122°24'0 0.0
2018-May-15 22:29N 37°48' W 122°24'0 0.0
2018-May-15 21:58N 37°48' W 122°24'0 0.0
2018-May-15 21:30N 37°48' W 122°24'0 0.0
2018-May-15 21:00N 37°48' W 122°24'0 0.0
2018-May-15 20:30N 37°48' W 122°24'0 0.0
2018-May-15 20:00N 37°48' W 122°24'0 0.0
2018-May-15 19:30N 37°48' W 122°24'0 0.0
2018-May-15 19:00N 37°48' W 122°24'0 0.0
2018-May-15 18:30N 37°48' W 122°24'0 0.0
2018-May-15 18:00N 37°48' W 122°24'0 0.0
2018-May-15 17:30N 37°48' W 122°24'0 0.0
2018-May-15 17:00N 37°48' W 122°24'0 0.0
2018-May-15 16:30N 37°48' W 122°24'0 0.0
2018-May-15 15:59N 37°48' W 122°24'0 0.0
2018-May-15 15:30N 37°48' W 122°24'0 0.0
2018-May-15 15:00N 37°48' W 122°24'0 0.0
2018-May-15 14:30N 37°48' W 122°24'0 0.0
2018-May-15 14:00N 37°48' W 122°24'0 0.0
2018-May-15 13:27N 37°48' W 122°24'0 0.0
2018-May-15 12:59N 37°48' W 122°24'0 0.0
2018-May-15 12:30N 37°48' W 122°24'0 0.0
2018-May-15 12:00N 37°48' W 122°24'0 0.0
2018-May-15 11:30N 37°48' W 122°24'0 0.0
2018-May-15 11:00N 37°48' W 122°24'0 0.0
2018-May-15 10:30N 37°48' W 122°24'0 0.0
2018-May-15 10:00N 37°48' W 122°24'0 0.0
2018-May-15 09:30N 37°48' W 122°24'0 0.0
2018-May-15 09:00N 37°48' W 122°24'0 0.0
2018-May-15 08:30N 37°48' W 122°24'0 0.0
2018-May-15 07:58N 37°48' W 122°24'0 0.0
2018-May-15 07:30N 37°48' W 122°24'0 0.0
2018-May-15 07:00N 37°48' W 122°24'0 0.0
2018-May-15 06:30N 37°48' W 122°24'0 0.0
2018-May-15 06:00N 37°48' W 122°24'0 0.0
2018-May-15 05:30N 37°48' W 122°24'0 0.0
2018-May-15 05:00N 37°48' W 122°24'0 0.0
2018-May-15 04:30N 37°48' W 122°24'0 0.0
2018-May-15 04:00N 37°48' W 122°24'0 0.0
2018-May-15 03:30N 37°48' W 122°24'0 0.0
2018-May-15 03:00N 37°48' W 122°24'0 0.0
2018-May-15 02:30N 37°48' W 122°24'0 0.0
2018-May-15 01:58N 37°48' W 122°24'0 0.0
2018-May-15 01:30N 37°48' W 122°24'0 0.0
2018-May-15 01:00N 37°48' W 122°24'0 0.0
2018-May-15 00:30N 37°48' W 122°24'0 0.0
2018-May-15 00:00N 37°48' W 122°24'0 0.0
2018-May-14 23:30N 37°48' W 122°24'0 0.0
2018-May-14 23:00N 37°48' W 122°24'  

Dump ship's entire track history